Time;durP1;ratioP1;P1;durP2;ratioP2;P2;SDS_P1;SDS_P2;PMS_P1;PMS_P2;Temp;Humidity;BMP_temperature;BMP_pressure;BME280_temperature;BME280_humidity;BME280_pressure;Samples;Min_cycle;Max_cycle;Signal;HPM_P1;HPM_P2
2023/07/12 00:02:37;;;;;;;4.70;3.07;;;20.20;99.90;;;;;;8349763;28;20203;-64
2023/07/12 00:06:39;;;;;;;4.10;3.27;;;20.20;99.90;;;;;;8368119;28;20227;-64
2023/07/12 00:10:40;;;;;;;6.27;3.20;;;20.10;99.90;;;;;;8371672;28;20201;-63
2023/07/12 00:14:41;;;;;;;5.10;3.43;;;20.00;99.90;;;;;;8366433;28;20196;-63
2023/07/12 00:18:42;;;;;;;7.57;3.00;;;19.90;99.90;;;;;;8350462;28;20205;-62
2023/07/12 00:22:42;;;;;;;4.80;3.10;;;19.90;99.90;;;;;;8348481;28;20979;-62
2023/07/12 00:26:43;;;;;;;4.57;3.27;;;19.80;99.90;;;;;;8353399;28;20221;-61
2023/07/12 00:30:44;;;;;;;5.63;3.40;;;19.70;99.90;;;;;;8369064;28;20189;-61
2023/07/12 00:34:44;;;;;;;4.37;3.40;;;19.60;99.90;;;;;;8346493;28;20182;-61
2023/07/12 00:38:46;;;;;;;4.43;3.30;;;19.60;99.90;;;;;;8352927;28;20277;-61
2023/07/12 00:42:51;;;;;;;5.57;3.63;;;19.50;99.90;;;;;;8360893;28;20273;-62
2023/07/12 00:46:54;;;;;;;7.40;3.60;;;19.40;1.00;;;;;;8347802;28;20209;-62
2023/07/12 00:51:00;;;;;;;5.70;3.73;;;19.40;1.00;;;;;;8366466;28;20188;-64
2023/07/12 00:55:03;;;;;;;5.23;3.20;;;19.40;1.00;;;;;;8354577;28;20214;-62
2023/07/12 00:59:28;;;;;;;7.77;3.30;;;19.30;1.00;;;;;;8354373;28;20194;-62
2023/07/12 01:03:32;;;;;;;4.43;3.40;;;19.20;1.00;;;;;;8350657;28;20291;-62
2023/07/12 01:07:36;;;;;;;5.90;3.30;;;19.20;1.00;;;;;;8350584;28;20372;-62
2023/07/12 01:11:37;;;;;;;4.90;3.60;;;19.10;1.00;;;;;;8369293;28;20189;-62
2023/07/12 01:15:38;;;;;;;4.33;3.37;;;19.00;1.00;;;;;;8354686;28;20300;-62
2023/07/12 01:19:40;;;;;;;6.17;4.17;;;19.00;1.00;;;;;;8365043;28;20181;-62
2023/07/12 01:23:42;;;;;;;5.03;3.77;;;18.90;1.00;;;;;;8348671;28;20235;-63
2023/07/12 01:27:43;;;;;;;4.90;3.70;;;18.90;1.00;;;;;;8364978;28;20284;-61
2023/07/12 01:31:45;;;;;;;7.30;3.73;;;18.90;1.00;;;;;;8363979;28;20184;-62
2023/07/12 01:35:46;;;;;;;5.33;3.33;;;18.90;1.00;;;;;;8351492;28;20185;-62
2023/07/12 01:39:46;;;;;;;3.97;3.47;;;18.80;1.00;;;;;;8348665;28;20186;-62
2023/07/12 01:43:48;;;;;;;7.73;3.60;;;18.80;1.00;;;;;;8364441;28;20193;-62
2023/07/12 01:47:48;;;;;;;5.87;3.70;;;18.80;1.00;;;;;;8361504;28;20178;-61
2023/07/12 01:51:49;;;;;;;6.30;3.90;;;18.70;1.00;;;;;;8354563;28;20273;-61
2023/07/12 01:55:50;;;;;;;5.47;3.77;;;18.70;1.00;;;;;;8367566;28;20181;-62
2023/07/12 01:59:51;;;;;;;4.30;3.33;;;18.70;1.00;;;;;;8351438;28;20200;-61
2023/07/12 02:03:52;;;;;;;3.80;3.23;;;18.70;1.00;;;;;;8353581;28;20201;-61
2023/07/12 02:07:56;;;;;;;6.13;3.23;;;18.70;1.00;;;;;;8365275;28;20185;-61
2023/07/12 02:11:57;;;;;;;7.87;3.40;;;18.70;1.00;;;;;;8364117;28;20183;-61
2023/07/12 02:15:57;;;;;;;6.60;3.03;;;18.70;1.00;;;;;;8364907;28;20189;-62
2023/07/12 02:20:00;;;;;;;5.53;2.90;;;18.70;1.00;;;;;;8349335;28;20318;-62
2023/07/12 02:24:02;;;;;;;6.03;3.40;;;18.70;1.00;;;;;;8347459;28;20343;-62
2023/07/12 02:28:03;;;;;;;3.47;2.83;;;18.70;1.00;;;;;;8361595;28;20219;-62
2023/07/12 02:32:04;;;;;;;5.53;3.03;;;18.70;1.00;;;;;;8356767;28;20215;-64
2023/07/12 02:36:07;;;;;;;5.30;3.10;;;18.70;1.00;;;;;;8364706;28;20197;-60
2023/07/12 02:40:09;;;;;;;3.83;3.33;;;18.70;1.00;;;;;;8367300;28;20181;-62
2023/07/12 02:44:12;;;;;;;4.07;3.00;;;18.70;1.00;;;;;;8360200;28;20211;-62
2023/07/12 02:48:12;;;;;;;3.80;2.80;;;18.80;1.00;;;;;;8364480;28;20184;-61
2023/07/12 02:52:14;;;;;;;4.97;3.10;;;18.80;1.00;;;;;;8349929;28;20267;-63
2023/07/12 02:56:14;;;;;;;5.97;3.40;;;18.90;1.00;;;;;;8362973;28;20241;-62
2023/07/12 03:00:18;;;;;;;6.30;3.70;;;18.90;1.00;;;;;;8349616;28;20201;-62
2023/07/12 03:04:19;;;;;;;4.77;3.33;;;18.90;1.00;;;;;;8346283;28;20275;-62
2023/07/12 03:08:20;;;;;;;5.43;3.83;;;19.00;1.00;;;;;;8344160;28;20194;-62
2023/07/12 03:12:21;;;;;;;6.93;4.07;;;19.10;1.00;;;;;;8343248;28;20194;-65
2023/07/12 03:16:22;;;;;;;4.70;3.53;;;19.20;1.00;;;;;;8362808;28;20302;-65
2023/07/12 03:20:23;;;;;;;5.27;3.90;;;19.20;1.00;;;;;;8346734;28;20189;-63
2023/07/12 03:24:23;;;;;;;5.10;3.80;;;19.20;1.00;;;;;;8347334;28;20220;-65
2023/07/12 03:28:25;;;;;;;7.27;4.03;;;19.20;1.00;;;;;;8362378;28;20181;-65
2023/07/12 03:32:26;;;;;;;8.27;4.43;;;19.20;1.00;;;;;;8347339;28;20213;-65
2023/07/12 03:36:31;;;;;;;5.30;3.67;;;19.20;1.00;;;;;;8348418;28;20193;-63
2023/07/12 03:40:31;;;;;;;5.87;4.20;;;19.20;1.00;;;;;;8344310;28;20190;-65
2023/07/12 03:44:32;;;;;;;6.97;4.20;;;19.30;1.00;;;;;;8346899;28;20241;-66
2023/07/12 03:48:33;;;;;;;6.97;4.30;;;19.20;1.00;;;;;;8340782;28;20192;-66
2023/07/12 03:52:34;;;;;;;6.03;4.10;;;19.30;1.00;;;;;;8346551;28;20186;-63
2023/07/12 03:56:35;;;;;;;5.80;3.87;;;19.30;1.00;;;;;;8359467;28;20186;-64
2023/07/12 04:00:40;;;;;;;7.47;4.17;;;19.30;1.00;;;;;;8344548;28;20201;-65
2023/07/12 04:04:40;;;;;;;9.57;4.27;;;19.30;1.00;;;;;;8347631;28;20214;-65
2023/07/12 04:08:41;;;;;;;7.77;4.97;;;19.30;1.00;;;;;;8349852;28;20211;-64
2023/07/12 04:12:42;;;;;;;8.37;4.87;;;19.30;1.00;;;;;;8361076;28;20188;-65
2023/07/12 04:16:44;;;;;;;5.80;4.63;;;19.30;1.00;;;;;;8361181;28;20280;-65
2023/07/12 04:20:48;;;;;;;6.70;4.50;;;19.30;1.00;;;;;;8342471;28;20189;-67
2023/07/12 04:24:50;;;;;;;6.43;4.57;;;19.40;1.00;;;;;;8364988;28;20292;-65
2023/07/12 04:28:52;;;;;;;5.53;4.30;;;19.40;1.00;;;;;;8354483;28;20185;-66
2023/07/12 04:32:53;;;;;;;9.93;6.17;;;19.40;1.00;;;;;;8367039;28;20189;-66
2023/07/12 04:36:54;;;;;;;6.70;5.17;;;19.50;1.00;;;;;;8345891;28;20189;-63
2023/07/12 04:41:00;;;;;;;5.33;4.50;;;19.60;1.00;;;;;;8359221;28;20181;-65
2023/07/12 04:45:01;;;;;;;6.87;5.07;;;19.70;1.00;;;;;;8349122;28;20246;-64
2023/07/12 04:49:01;;;;;;;5.87;5.10;;;19.80;1.00;;;;;;8366559;28;20178;-65
2023/07/12 04:53:03;;;;;;;6.27;5.20;;;19.80;1.00;;;;;;8364634;28;20189;-66
2023/07/12 04:57:04;;;;;;;8.70;6.03;;;19.80;1.00;;;;;;8369450;28;20235;-65
2023/07/12 05:01:04;;;;;;;5.97;4.83;;;19.90;1.00;;;;;;8352430;28;20246;-66
2023/07/12 05:05:06;;;;;;;8.97;5.07;;;19.80;1.00;;;;;;8356387;28;20206;-65
2023/07/12 05:09:07;;;;;;;6.20;4.80;;;19.80;1.00;;;;;;8365155;28;20178;-66
2023/07/12 05:13:08;;;;;;;5.37;4.63;;;19.80;1.00;;;;;;8349533;28;20192;-65
2023/07/12 05:17:12;;;;;;;5.60;4.20;;;19.90;1.00;;;;;;8348453;28;20185;-66
2023/07/12 05:21:12;;;;;;;6.90;5.10;;;19.90;1.00;;;;;;8349129;28;20258;-67
2023/07/12 05:25:14;;;;;;;6.67;4.83;;;20.00;1.00;;;;;;8352204;28;20204;-66
2023/07/12 05:29:15;;;;;;;7.73;5.03;;;20.10;1.00;;;;;;8367873;28;20192;-66
2023/07/12 05:33:16;;;;;;;8.33;4.37;;;20.20;1.00;;;;;;8365970;28;20178;-66
2023/07/12 05:37:17;;;;;;;7.33;4.70;;;20.30;1.00;;;;;;8365729;28;20204;-65
2023/07/12 05:41:18;;;;;;;6.97;4.83;;;20.50;1.00;;;;;;8350592;28;20208;-66
2023/07/12 05:45:18;;;;;;;6.37;4.70;;;20.60;1.00;;;;;;8351523;28;20209;-65
2023/07/12 05:49:19;;;;;;;12.60;5.50;;;20.70;1.00;;;;;;8364267;28;20269;-65
2023/07/12 05:53:21;;;;;;;7.67;5.40;;;20.80;1.00;;;;;;8346854;28;20208;-65
2023/07/12 05:57:22;;;;;;;7.37;5.40;;;20.90;1.00;;;;;;8364822;28;20185;-66
2023/07/12 06:01:26;;;;;;;6.07;4.77;;;21.10;1.00;;;;;;8346623;28;20268;-65
2023/07/12 06:05:27;;;;;;;6.90;5.20;;;21.40;1.00;;;;;;8361642;28;20249;-66
2023/07/12 06:09:28;;;;;;;9.23;5.70;;;21.70;1.00;;;;;;8346229;28;20182;-66
2023/07/12 06:13:31;;;;;;;8.67;5.70;;;21.90;1.00;;;;;;8348947;28;20187;-66
2023/07/12 06:17:32;;;;;;;10.03;6.10;;;21.90;1.00;;;;;;8347213;28;20183;-65
2023/07/12 06:21:33;;;;;;;7.03;5.47;;;22.00;1.00;;;;;;8347749;28;20196;-65
2023/07/12 06:25:34;;;;;;;6.13;4.93;;;22.30;1.00;;;;;;8347416;28;20209;-68
2023/07/12 06:29:35;;;;;;;6.73;4.80;;;22.70;1.00;;;;;;8362124;28;20192;-66
2023/07/12 06:33:38;;;;;;;7.50;5.23;;;23.20;1.00;;;;;;8351204;28;20210;-66
2023/07/12 06:37:39;;;;;;;7.47;5.23;;;23.60;99.90;;;;;;8362411;28;20241;-67
2023/07/12 06:41:40;;;;;;;8.90;6.57;;;24.00;99.90;;;;;;8363883;28;20182;-66
2023/07/12 06:45:45;;;;;;;7.43;6.27;;;24.20;99.90;;;;;;8350768;28;20227;-66
2023/07/12 06:49:46;;;;;;;9.27;5.73;;;24.40;99.90;;;;;;8343355;28;20261;-66
2023/07/12 06:53:46;;;;;;;11.00;4.47;;;25.00;99.90;;;;;;8349649;28;20280;-67
2023/07/12 06:57:47;;;;;;;6.77;5.17;;;25.70;99.90;;;;;;8345174;28;20212;-66
2023/07/12 07:01:48;;;;;;;8.35;5.63;;;26.50;99.90;;;;;;8362660;28;20284;-67
2023/07/12 07:05:49;;;;;;;7.60;5.82;;;27.00;99.90;;;;;;8348268;28;20220;-67
2023/07/12 07:09:50;;;;;;;8.75;5.72;;;26.80;99.90;;;;;;8348682;28;20223;-68
2023/07/12 07:13:51;;;;;;;5.60;4.30;;;26.40;99.90;;;;;;8347865;28;20173;-66
2023/07/12 07:17:53;;;;;;;5.30;4.55;;;25.80;99.90;;;;;;8364251;28;20213;-68
2023/07/12 07:21:54;;;;;;;5.72;4.25;;;25.70;99.90;;;;;;8344825;28;20346;-66
2023/07/12 07:26:00;;;;;;;6.25;4.32;;;25.60;99.90;;;;;;8352114;28;20213;-67
2023/07/12 07:30:01;;;;;;;4.50;4.10;;;25.80;99.90;;;;;;8344302;28;20192;-66
2023/07/12 07:34:03;;;;;;;4.93;3.85;;;25.70;99.90;;;;;;8348566;28;20193;-66
2023/07/12 07:38:03;;;;;;;5.95;3.63;;;25.70;99.90;;;;;;8359756;28;20216;-66
2023/07/12 07:42:04;;;;;;;6.77;4.53;;;25.70;99.90;;;;;;8363699;28;20182;-66
2023/07/12 07:46:10;;;;;;;4.17;3.77;;;25.40;99.90;;;;;;8343956;28;20220;-67
2023/07/12 07:50:13;;;;;;;4.63;3.40;;;25.40;99.90;;;;;;8354489;28;20225;-67
2023/07/12 07:54:15;;;;;;;4.53;3.73;;;25.30;99.90;;;;;;8346487;28;20212;-67
2023/07/12 07:58:16;;;;;;;3.97;3.47;;;25.50;99.90;;;;;;8361437;28;20192;-68
2023/07/12 08:02:17;;;;;;;5.45;3.72;;;25.80;99.90;;;;;;8366212;28;20201;-65
2023/07/12 08:06:19;;;;;;;5.27;3.93;;;26.00;99.90;;;;;;8366296;28;20216;-69
2023/07/12 08:10:20;;;;;;;6.32;3.95;;;26.10;99.90;;;;;;8355088;28;20208;-67
2023/07/12 08:14:21;;;;;;;5.28;3.58;;;26.10;99.90;;;;;;8354412;28;20185;-68
2023/07/12 08:18:23;;;;;;;4.45;3.75;;;26.40;99.90;;;;;;8353730;28;20177;-67
2023/07/12 08:22:24;;;;;;;4.45;2.90;;;26.90;99.90;;;;;;8354488;28;20185;-67
2023/07/12 08:26:28;;;;;;;5.20;3.40;;;27.20;99.90;;;;;;8364512;28;20208;-66
2023/07/12 08:30:29;;;;;;;4.47;3.72;;;27.50;99.90;;;;;;8351564;28;20278;-66
2023/07/12 08:34:30;;;;;;;4.68;3.53;;;27.80;99.90;;;;;;8370811;28;20190;-67
2023/07/12 08:38:32;;;;;;;3.78;2.90;;;28.20;99.90;;;;;;8367685;28;20284;-66
2023/07/12 08:42:38;;;;;;;4.32;3.28;;;28.60;99.90;;;;;;8351111;28;20186;-66
2023/07/12 08:46:46;;;;;;;4.57;3.30;;;29.00;99.90;;;;;;8345404;28;20205;-67
2023/07/12 08:50:48;;;;;;;3.53;3.00;;;29.40;99.90;;;;;;8347872;28;20245;-67
2023/07/12 08:54:50;;;;;;;5.55;2.92;;;29.60;99.90;;;;;;8368129;28;20184;-67
2023/07/12 08:58:53;;;;;;;4.70;3.75;;;29.70;99.90;;;;;;8364428;28;20185;-67
2023/07/12 09:02:54;;;;;;;4.55;2.80;;;29.90;99.90;;;;;;8371829;28;20241;-67
2023/07/12 09:06:58;;;;;;;4.57;3.38;;;30.20;99.90;;;;;;8351467;28;20218;-67
2023/07/12 09:11:05;;;;;;;5.72;2.88;;;30.50;99.90;;;;;;8365592;28;20190;-67
2023/07/12 09:15:11;;;;;;;3.50;2.80;;;31.10;99.90;;;;;;8355707;28;20200;-67
2023/07/12 09:19:27;;;;;;;3.17;2.88;;;31.60;99.90;;;;;;8365095;28;20272;-67
2023/07/12 09:23:39;;;;;;;4.90;2.72;;;31.50;99.90;;;;;;8347476;28;20192;-66
2023/07/12 09:27:47;;;;;;;2.88;2.40;;;31.60;99.90;;;;;;8362239;28;20217;-68
2023/07/12 09:31:49;;;;;;;2.72;2.22;;;31.20;99.90;;;;;;8351526;28;20205;-65
2023/07/12 09:35:51;;;;;;;4.75;2.10;;;31.30;99.90;;;;;;8347638;28;20190;-68
2023/07/12 09:39:56;;;;;;;2.25;2.05;;;31.60;99.90;;;;;;8350601;28;20269;-67
2023/07/12 09:44:00;;;;;;;2.42;2.00;;;32.10;99.90;;;;;;8350968;28;20209;-67
2023/07/12 09:48:32;;;;;;;1.80;1.70;;;32.30;99.90;;;;;;8347205;28;20185;-68
2023/07/12 09:52:46;;;;;;;3.58;2.70;;;32.20;99.90;;;;;;8347138;28;20185;-67
2023/07/12 09:57:16;;;;;;;2.88;2.13;;;32.70;99.90;;;;;;8366692;28;20192;-68
2023/07/12 10:01:35;;;;;;;2.22;2.00;;;32.70;99.90;;;;;;8345477;28;20217;-68
2023/07/12 10:06:11;;;;;;;3.13;1.92;;;32.80;99.90;;;;;;8353921;28;20214;-68
2023/07/12 10:10:53;;;;;;;2.83;2.20;;;32.70;99.90;;;;;;8338892;28;20186;-65
2023/07/12 10:14:55;;;;;;;3.10;2.25;;;33.00;99.90;;;;;;8347859;28;20186;-66
2023/07/12 10:18:57;;;;;;;3.85;2.40;;;32.90;99.90;;;;;;8365241;28;20205;-67
2023/07/12 10:22:58;;;;;;;4.65;2.33;;;32.70;99.90;;;;;;8354324;28;20190;-67
2023/07/12 10:27:02;;;;;;;4.53;2.47;;;32.20;99.90;;;;;;8345434;28;20299;-67
2023/07/12 10:31:25;;;;;;;2.90;1.80;;;31.90;99.90;;;;;;8365344;28;20182;-67
2023/07/12 10:35:38;;;;;;;6.65;2.22;;;32.00;99.90;;;;;;8366668;28;20192;-69
2023/07/12 10:39:40;;;;;;;3.22;2.05;;;31.30;99.90;;;;;;8349523;28;20200;-68
2023/07/12 10:43:47;;;;;;;2.97;2.25;;;31.00;99.90;;;;;;8350382;28;20296;-68
2023/07/12 10:47:49;;;;;;;4.13;2.13;;;30.60;99.90;;;;;;8349608;28;20259;-66
2023/07/12 10:52:16;;;;;;;2.25;2.05;;;30.10;99.90;;;;;;8351043;28;20193;-65
2023/07/12 10:56:50;;;;;;;4.32;2.00;;;29.50;99.90;;;;;;8348730;28;20197;-66
2023/07/12 11:01:49;;;;;;;2.65;2.10;;;29.50;99.90;;;;;;8362923;28;20209;-67
2023/07/12 11:06:26;;;;;;;2.90;2.20;;;29.80;99.90;;;;;;8343995;28;20218;-68
2023/07/12 11:10:27;;;;;;;3.58;2.30;;;30.10;99.90;;;;;;8213599;28;20194;-67
2023/07/12 11:14:37;;;;;;;2.85;2.35;;;30.30;99.90;;;;;;8346662;28;20185;-67
2023/07/12 11:18:38;;;;;;;3.58;2.33;;;30.30;99.90;;;;;;8362024;28;20272;-69
2023/07/12 11:22:51;;;;;;;3.03;2.47;;;30.20;99.90;;;;;;8345013;28;20189;-67
2023/07/12 11:27:01;;;;;;;3.13;2.30;;;30.40;99.90;;;;;;8349867;28;20359;-66
2023/07/12 11:31:19;;;;;;;3.08;2.35;;;31.00;99.90;;;;;;8361736;28;20263;-68
2023/07/12 11:35:43;;;;;;;3.90;2.40;;;31.30;99.90;;;;;;8352820;28;20180;-70
2023/07/12 11:39:47;;;;;;;4.55;2.75;;;31.40;99.90;;;;;;8359227;28;20221;-68
2023/07/12 11:44:03;;;;;;;3.97;2.35;;;31.50;99.90;;;;;;8353276;28;20189;-65
2023/07/12 11:48:07;;;;;;;7.45;2.30;;;31.30;99.90;;;;;;8352015;28;20204;-65
2023/07/12 11:52:16;;;;;;;4.80;2.67;;;31.10;99.90;;;;;;8353004;28;20182;-68
2023/07/12 11:56:17;;;;;;;4.80;2.42;;;30.90;99.90;;;;;;8359678;28;20186;-68
2023/07/12 12:00:23;;;;;;;3.72;2.40;;;31.00;99.90;;;;;;8355611;28;20193;-66
2023/07/12 12:04:28;;;;;;;2.83;2.40;;;31.20;99.90;;;;;;8359137;28;20202;-67
2023/07/12 12:08:30;;;;;;;3.22;2.92;;;31.80;99.90;;;;;;8350263;28;20181;-67
2023/07/12 12:12:35;;;;;;;4.13;2.28;;;32.10;99.90;;;;;;8350821;28;20201;-66
2023/07/12 12:16:36;;;;;;;2.60;2.40;;;31.80;99.90;;;;;;8351185;28;20193;-68
2023/07/12 12:20:37;;;;;;;4.22;3.00;;;31.90;99.90;;;;;;8350800;28;20206;-69
2023/07/12 12:24:44;;;;;;;2.80;2.42;;;31.80;99.90;;;;;;8350653;28;20278;-68
2023/07/12 12:28:51;;;;;;;3.67;2.50;;;32.10;99.90;;;;;;8367561;28;20201;-70
2023/07/12 12:33:00;;;;;;;3.67;2.30;;;32.40;99.90;;;;;;8366154;28;20178;-70
2023/07/12 12:37:07;;;;;;;2.97;2.50;;;31.60;99.90;;;;;;8351458;28;20213;-69
2023/07/12 12:41:20;;;;;;;2.97;2.55;;;30.90;99.90;;;;;;8355561;28;20178;-67
2023/07/12 12:45:21;;;;;;;3.38;2.55;;;30.50;99.90;;;;;;8366788;28;20206;-69
2023/07/12 12:49:28;;;;;;;5.10;2.38;;;30.50;99.90;;;;;;8353400;28;20181;-67
2023/07/12 12:53:28;;;;;;;2.85;2.35;;;31.00;99.90;;;;;;8369091;28;20189;-69
2023/07/12 12:57:31;;;;;;;4.88;2.50;;;31.30;99.90;;;;;;8366588;28;20216;-70
2023/07/12 13:01:32;;;;;;;3.55;2.47;;;31.50;99.90;;;;;;8349578;28;20209;-71
2023/07/12 13:05:33;;;;;;;2.63;2.40;;;31.30;99.90;;;;;;8368213;28;20213;-70
2023/07/12 13:09:34;;;;;;;7.72;2.60;;;31.00;99.90;;;;;;8356696;28;20188;-69
2023/07/12 13:13:35;;;;;;;3.05;2.45;;;30.20;99.90;;;;;;8349869;28;20186;-70
2023/07/12 13:17:35;;;;;;;3.90;2.63;;;29.80;99.90;;;;;;8366148;28;20206;-69
2023/07/12 13:21:36;;;;;;;2.95;2.22;;;30.00;99.90;;;;;;8367673;28;20188;-70
2023/07/12 13:25:41;;;;;;;4.15;2.50;;;30.30;99.90;;;;;;8352913;28;20296;-71
2023/07/12 13:29:42;;;;;;;2.92;2.63;;;29.90;99.90;;;;;;8353237;28;20296;-69
2023/07/12 13:33:44;;;;;;;6.18;2.63;;;29.80;99.90;;;;;;8366158;28;20184;-70
2023/07/12 13:37:45;;;;;;;3.75;2.50;;;29.80;99.90;;;;;;8366870;28;20185;-69
2023/07/12 13:41:48;;;;;;;4.25;2.60;;;29.70;99.90;;;;;;8364516;28;20185;-69
2023/07/12 13:45:50;;;;;;;4.60;2.42;;;29.70;99.90;;;;;;8365720;28;20201;-69
2023/07/12 13:49:52;;;;;;;4.63;2.30;;;29.40;99.90;;;;;;8365408;28;20201;-69
2023/07/12 13:53:53;;;;;;;3.08;2.70;;;29.20;99.90;;;;;;8366207;28;20182;-69
2023/07/12 13:57:54;;;;;;;3.80;2.45;;;29.30;99.90;;;;;;8365274;28;20186;-71
2023/07/12 14:01:54;;;;;;;5.55;2.60;;;29.60;99.90;;;;;;8346921;28;20205;-69
2023/07/12 14:05:55;;;;;;;3.25;2.88;;;29.90;99.90;;;;;;8350109;28;20319;-67
2023/07/12 14:09:57;;;;;;;4.78;3.13;;;30.00;99.90;;;;;;8363968;28;20181;-67
2023/07/12 14:14:01;;;;;;;4.35;2.47;;;29.80;99.90;;;;;;8352151;28;20177;-70
2023/07/12 14:18:03;;;;;;;3.10;2.80;;;29.40;99.90;;;;;;8346909;28;20280;-69
2023/07/12 14:22:10;;;;;;;4.53;2.95;;;29.10;99.90;;;;;;8351116;28;20192;-70
2023/07/12 14:26:21;;;;;;;4.45;2.72;;;29.10;99.90;;;;;;8345340;28;20224;-68
2023/07/12 14:30:22;;;;;;;3.58;3.20;;;29.20;99.90;;;;;;8352222;28;20200;-69
2023/07/12 14:34:23;;;;;;;3.85;2.88;;;29.00;99.90;;;;;;8352590;28;20181;-69
2023/07/12 14:38:24;;;;;;;3.33;2.85;;;28.90;99.90;;;;;;8368405;28;20169;-70
2023/07/12 14:42:30;;;;;;;6.93;3.13;;;29.00;99.90;;;;;;8366064;28;20180;-70
2023/07/12 14:46:31;;;;;;;4.93;3.38;;;29.00;99.90;;;;;;8366041;28;20213;-69
2023/07/12 14:50:32;;;;;;;4.68;3.10;;;29.50;99.90;;;;;;8348463;28;20199;-72
2023/07/12 14:54:33;;;;;;;5.03;3.38;;;29.60;99.90;;;;;;8362635;28;20186;-70
2023/07/12 14:58:34;;;;;;;3.78;3.05;;;29.40;99.90;;;;;;8367347;28;20185;-70
2023/07/12 15:02:40;;;;;;;6.65;2.95;;;29.40;99.90;;;;;;8347471;28;20201;-70
2023/07/12 15:06:41;;;;;;;4.68;3.20;;;29.80;99.90;;;;;;8346955;28;20263;-67
2023/07/12 15:10:42;;;;;;;5.28;3.15;;;29.90;99.90;;;;;;8347718;28;20185;-69
2023/07/12 15:14:42;;;;;;;5.22;3.15;;;30.00;99.90;;;;;;8349001;28;20309;-70
2023/07/12 15:18:44;;;;;;;4.43;3.42;;;29.80;99.90;;;;;;8361102;28;20203;-70
2023/07/12 15:22:45;;;;;;;5.55;3.25;;;29.50;99.90;;;;;;8366151;28;20185;-69
2023/07/12 15:26:46;;;;;;;3.85;3.40;;;29.60;99.90;;;;;;8344465;28;20213;-68
2023/07/12 15:30:48;;;;;;;4.25;3.50;;;29.70;99.90;;;;;;8362810;28;20307;-67
2023/07/12 15:34:48;;;;;;;3.88;3.47;;;29.50;99.90;;;;;;8364966;28;20287;-69
2023/07/12 15:38:50;;;;;;;5.60;3.20;;;29.50;99.90;;;;;;8348393;28;20216;-70
2023/07/12 15:42:54;;;;;;;4.32;2.72;;;29.40;99.90;;;;;;8347826;28;20199;-69
2023/07/12 15:46:55;;;;;;;4.13;3.65;;;29.10;99.90;;;;;;8350312;28;20209;-67
2023/07/12 15:51:13;;;;;;;4.10;3.05;;;29.00;99.90;;;;;;8359345;28;20178;-67
2023/07/12 15:55:16;;;;;;;4.25;3.03;;;29.00;99.90;;;;;;8362518;28;20189;-67
2023/07/12 15:59:18;;;;;;;3.72;3.00;;;29.20;99.90;;;;;;8348156;28;20189;-67
2023/07/12 16:03:28;;;;;;;3.45;3.15;;;29.30;99.90;;;;;;8360327;28;20229;-66
2023/07/12 16:07:29;;;;;;;4.32;2.72;;;29.30;99.90;;;;;;8362217;28;20205;-67
2023/07/12 16:11:36;;;;;;;3.90;2.88;;;29.30;99.90;;;;;;8357924;28;20189;-66
2023/07/12 16:15:39;;;;;;;3.35;2.83;;;29.30;99.90;;;;;;8347688;28;20193;-66
2023/07/12 16:19:40;;;;;;;4.65;2.60;;;29.20;99.90;;;;;;8344481;28;20273;-65
2023/07/12 16:23:42;;;;;;;3.75;2.88;;;29.10;99.90;;;;;;8354678;28;20204;-66
2023/07/12 16:27:48;;;;;;;2.92;2.63;;;29.30;99.90;;;;;;8364915;28;20291;-67
2023/07/12 16:31:51;;;;;;;4.78;3.08;;;29.60;99.90;;;;;;8352587;28;20189;-66
2023/07/12 16:35:54;;;;;;;5.55;3.30;;;29.70;99.90;;;;;;8356237;28;20182;-65
2023/07/12 16:39:55;;;;;;;5.63;3.70;;;29.60;99.90;;;;;;8352749;28;20186;-67
2023/07/12 16:43:58;;;;;;;4.68;3.53;;;29.30;99.90;;;;;;8364781;28;20304;-66
2023/07/12 16:48:00;;;;;;;7.68;3.47;;;28.90;99.90;;;;;;8340057;28;20228;-65
2023/07/12 16:52:04;;;;;;;5.30;3.95;;;28.60;99.90;;;;;;8350985;28;20196;-66
2023/07/12 16:56:11;;;;;;;3.45;3.15;;;28.40;99.90;;;;;;8357662;28;20197;-67
2023/07/12 17:00:13;;;;;;;5.22;3.67;;;28.20;99.90;;;;;;8353387;28;20254;-66
2023/07/12 17:04:17;;;;;;;3.35;3.03;;;28.00;99.90;;;;;;8347965;28;20201;-66
2023/07/12 17:08:25;;;;;;;4.05;2.88;;;27.90;99.90;;;;;;8353957;28;20217;-65
2023/07/12 17:12:34;;;;;;;3.97;3.22;;;27.70;99.90;;;;;;8348705;28;20202;-65
2023/07/12 17:16:35;;;;;;;4.78;2.78;;;27.70;99.90;;;;;;8365264;28;20189;-66
2023/07/12 17:20:40;;;;;;;3.45;3.15;;;27.70;99.90;;;;;;8350060;28;20219;-65
2023/07/12 17:24:42;;;;;;;3.90;2.75;;;27.80;99.90;;;;;;8348901;28;20327;-66
2023/07/12 17:28:45;;;;;;;3.70;2.78;;;27.80;99.90;;;;;;8349509;28;20177;-66
2023/07/12 17:32:46;;;;;;;3.38;2.67;;;27.80;99.90;;;;;;8366653;28;20181;-65
2023/07/12 17:36:47;;;;;;;4.13;2.63;;;27.90;99.90;;;;;;8347070;28;20182;-64
2023/07/12 17:40:51;;;;;;;3.65;2.45;;;27.70;99.90;;;;;;8347289;28;20189;-65
2023/07/12 17:44:52;;;;;;;2.95;2.63;;;27.60;99.90;;;;;;8352640;28;20213;-66
2023/07/12 17:48:53;;;;;;;4.05;2.42;;;27.70;99.90;;;;;;8344585;28;20215;-66
2023/07/12 17:52:54;;;;;;;2.70;2.17;;;27.70;99.90;;;;;;8351263;28;20179;-66
2023/07/12 17:56:55;;;;;;;2.40;2.20;;;27.50;99.90;;;;;;8364342;28;20268;-66
2023/07/12 18:00:56;;;;;;;2.50;2.20;;;27.40;99.90;;;;;;8364448;28;20188;-65
2023/07/12 18:04:57;;;;;;;2.80;2.13;;;27.30;99.90;;;;;;8366921;28;20256;-65
2023/07/12 18:08:57;;;;;;;6.25;4.90;;;27.10;99.90;;;;;;8343975;28;20204;-65
2023/07/12 18:12:58;;;;;;;3.00;2.60;;;27.00;99.90;;;;;;8347373;28;20174;-65
2023/07/12 18:16:59;;;;;;;5.45;2.40;;;26.90;99.90;;;;;;8343475;28;20189;-65
2023/07/12 18:21:04;;;;;;;4.65;2.85;;;26.80;99.90;;;;;;8366945;28;20188;-65
2023/07/12 18:25:11;;;;;;;2.20;1.88;;;26.70;99.90;;;;;;8362978;28;20231;-65
2023/07/12 18:29:12;;;;;;;7.28;2.60;;;26.80;99.90;;;;;;8363501;28;20174;-66
2023/07/12 18:33:22;;;;;;;3.88;1.95;;;27.10;99.90;;;;;;8364751;28;20186;-65
2023/07/12 18:37:23;;;;;;;2.20;2.00;;;27.60;99.90;;;;;;8344497;28;20181;-66
2023/07/12 18:41:26;;;;;;;3.75;1.98;;;27.90;99.90;;;;;;8352388;28;20185;-66
2023/07/12 18:45:31;;;;;;;3.30;2.03;;;27.90;99.90;;;;;;8359891;28;20213;-66
2023/07/12 18:49:31;;;;;;;4.70;2.25;;;27.80;99.90;;;;;;8346248;28;20235;-67
2023/07/12 18:53:32;;;;;;;2.75;2.08;;;27.60;99.90;;;;;;8363470;28;20181;-65
2023/07/12 18:57:33;;;;;;;3.28;2.00;;;27.20;99.90;;;;;;8362142;28;20189;-65
2023/07/12 19:01:34;;;;;;;2.63;1.48;;;26.60;99.90;;;;;;8350656;28;20257;-66
2023/07/12 19:05:36;;;;;;;2.65;1.90;;;26.20;99.90;;;;;;8345373;28;20212;-65
2023/07/12 19:09:36;;;;;;;2.17;1.83;;;25.80;99.90;;;;;;8348273;28;20182;-65
2023/07/12 19:13:37;;;;;;;3.33;1.90;;;25.50;99.90;;;;;;8348310;28;20177;-65
2023/07/12 19:17:39;;;;;;;2.10;1.90;;;25.20;99.90;;;;;;8348313;28;20197;-66
2023/07/12 19:21:44;;;;;;;2.10;1.80;;;25.00;99.90;;;;;;8345193;28;20211;-66
2023/07/12 19:25:46;;;;;;;2.00;1.70;;;24.70;99.90;;;;;;8344885;28;20213;-64
2023/07/12 19:29:50;;;;;;;1.60;1.50;;;24.40;99.90;;;;;;8346688;28;20185;-66
2023/07/12 19:33:53;;;;;;;3.30;2.17;;;24.20;99.90;;;;;;8348997;28;20182;-62
2023/07/12 19:37:54;;;;;;;2.77;2.43;;;23.90;99.90;;;;;;8361361;28;20181;-63
2023/07/12 19:41:55;;;;;;;2.90;2.03;;;23.70;99.90;;;;;;8361639;28;20207;-63
2023/07/12 19:45:56;;;;;;;2.97;2.50;;;23.50;99.90;;;;;;8345800;28;20308;-63
2023/07/12 19:50:00;;;;;;;2.60;2.00;;;23.30;99.90;;;;;;8362085;28;20209;-63
2023/07/12 19:54:03;;;;;;;3.10;2.30;;;23.10;99.90;;;;;;8342256;28;20232;-65
2023/07/12 19:58:04;;;;;;;3.23;2.40;;;22.80;99.90;;;;;;8366995;28;20223;-66
2023/07/12 20:02:19;;;;;;;2.63;2.37;;;22.70;99.90;;;;;;8368936;28;20204;-64
2023/07/12 20:06:20;;;;;;;2.57;2.27;;;22.30;99.90;;;;;;8370550;28;20214;-67
2023/07/12 20:10:21;;;;;;;2.47;2.20;;;22.20;99.90;;;;;;8355209;28;20288;-65
2023/07/12 20:14:22;;;;;;;4.23;2.17;;;22.10;99.90;;;;;;8350192;28;20260;-65
2023/07/12 20:18:23;;;;;;;2.87;2.07;;;22.00;99.90;;;;;;8354020;28;20240;-66
2023/07/12 20:22:24;;;;;;;3.20;2.10;;;21.90;99.90;;;;;;8371732;28;20243;-65
2023/07/12 20:26:25;;;;;;;3.10;2.20;;;21.70;99.90;;;;;;8365925;28;20214;-64
2023/07/12 20:30:25;;;;;;;2.60;2.10;;;21.60;99.90;;;;;;8354722;28;20178;-65
2023/07/12 20:34:26;;;;;;;2.77;2.07;;;21.50;99.90;;;;;;8357313;28;20177;-65
2023/07/12 20:38:29;;;;;;;2.70;2.10;;;21.40;99.90;;;;;;8367175;28;20190;-66
2023/07/12 20:42:30;;;;;;;5.33;2.87;;;21.40;99.90;;;;;;8350099;28;20216;-64
2023/07/12 20:46:37;;;;;;;5.87;2.07;;;21.30;1.00;;;;;;8364960;28;20246;-64
2023/07/12 20:50:41;;;;;;;3.80;2.10;;;21.20;1.00;;;;;;8350658;28;20210;-63
2023/07/12 20:54:45;;;;;;;3.57;2.50;;;21.10;1.00;;;;;;8368371;28;20182;-64
2023/07/12 20:58:51;;;;;;;5.10;2.50;;;21.10;1.00;;;;;;8353725;28;20264;-65
2023/07/12 21:02:53;;;;;;;2.53;2.27;;;21.00;1.00;;;;;;8345718;28;20219;-65
2023/07/12 21:06:54;;;;;;;2.63;2.03;;;21.00;1.00;;;;;;8368883;28;20237;-65
2023/07/12 21:11:00;;;;;;;2.37;2.17;;;21.00;1.00;;;;;;8348053;28;20190;-64
2023/07/12 21:15:01;;;;;;;2.30;1.93;;;21.10;1.00;;;;;;8367064;28;20182;-64